createdAt,value
2017-05-21T12:00:34.680Z,27.10
2017-05-21T12:03:03.027Z,27.50
2017-05-21T12:05:31.437Z,28.20
2017-05-21T12:07:59.923Z,28.80
2017-05-21T12:10:28.308Z,28.00
2017-05-21T12:12:56.667Z,27.70
2017-05-21T12:15:24.995Z,28.10
2017-05-21T12:17:53.369Z,28.40
2017-05-21T12:20:21.706Z,28.60
2017-05-21T12:22:50.048Z,28.70
2017-05-21T12:25:18.373Z,28.20
2017-05-21T12:27:46.713Z,27.20
2017-05-21T12:30:15.031Z,26.60
2017-05-21T12:32:43.389Z,28.00
2017-05-21T12:35:11.708Z,27.70
2017-05-21T12:37:40.060Z,26.70
2017-05-21T12:40:08.381Z,27.10
2017-05-21T12:42:36.724Z,27.40
2017-05-21T12:45:05.040Z,27.90
2017-05-21T12:47:33.390Z,28.00
2017-05-21T12:50:01.717Z,28.10
2017-05-21T12:52:30.058Z,27.60
2017-05-21T12:54:58.378Z,28.20
2017-05-21T12:57:26.741Z,28.30
2017-05-21T12:59:55.060Z,29.50
2017-05-21T13:02:23.419Z,29.00
2017-05-21T13:04:51.736Z,29.10
2017-05-21T13:07:20.082Z,29.00
2017-05-21T13:09:48.396Z,27.90
2017-05-21T13:12:16.747Z,27.70
2017-05-21T13:14:45.080Z,26.10
2017-05-21T13:17:13.435Z,25.70
2017-05-21T13:19:41.770Z,26.10
2017-05-21T13:22:10.105Z,25.90
2017-05-21T13:24:38.427Z,25.70
2017-05-21T13:27:06.784Z,26.20
2017-05-21T13:29:35.097Z,27.20
2017-05-21T13:32:03.445Z,26.20
2017-05-21T13:34:31.770Z,26.80
2017-05-21T13:37:00.119Z,27.20
2017-05-21T13:39:28.436Z,27.10
2017-05-21T13:41:56.763Z,26.30
2017-05-21T13:44:25.130Z,26.10
2017-05-21T13:46:53.473Z,26.20
2017-05-21T13:49:21.822Z,25.60
2017-05-21T13:51:50.135Z,25.40
2017-05-21T13:54:18.484Z,26.10
2017-05-21T13:56:47.508Z,27.80
2017-05-21T13:59:15.855Z,26.90
2017-05-21T14:01:44.168Z,26.80
2017-05-21T14:04:12.517Z,26.50
2017-05-21T14:06:40.837Z,26.80
2017-05-21T14:09:09.215Z,27.00
2017-05-21T14:11:37.537Z,27.30
2017-05-21T14:14:05.891Z,28.60
2017-05-21T14:16:34.204Z,28.80
2017-05-21T14:19:02.567Z,28.40
2017-05-21T14:21:30.940Z,28.00
2017-05-21T14:23:59.286Z,28.10
2017-05-21T14:26:27.601Z,27.10
2017-05-21T14:28:55.943Z,27.10
2017-05-21T14:31:24.262Z,27.70
2017-05-21T14:33:52.627Z,27.40
2017-05-21T14:36:20.949Z,27.20
2017-05-21T14:38:49.301Z,27.50
2017-05-21T14:41:17.626Z,27.60
2017-05-21T14:43:45.969Z,27.50
2017-05-21T14:46:14.310Z,26.80
2017-05-21T14:48:42.664Z,27.00
2017-05-21T14:51:10.989Z,27.60
2017-05-21T14:53:39.333Z,27.20
2017-05-21T14:56:07.653Z,27.00
2017-05-21T14:58:35.996Z,26.30
2017-05-21T15:01:04.320Z,26.10
2017-05-21T15:03:32.685Z,27.10
2017-05-21T15:06:01.032Z,26.90
2017-05-21T15:08:29.372Z,26.70
2017-05-21T15:10:57.692Z,26.90
2017-05-21T15:13:26.043Z,27.00
2017-05-21T15:15:54.360Z,27.70
2017-05-21T15:18:22.706Z,28.70
2017-05-21T15:20:51.036Z,29.00
2017-05-21T15:23:19.422Z,29.30
2017-05-21T15:25:47.776Z,29.10
2017-05-21T15:28:16.130Z,29.10
2017-05-21T15:30:44.460Z,29.60
2017-05-21T15:33:12.838Z,30.30
2017-05-21T15:35:41.155Z,30.60
2017-05-21T15:38:09.499Z,30.90
2017-05-21T15:40:37.850Z,31.30
2017-05-21T15:43:06.168Z,29.60
2017-05-21T15:45:34.519Z,30.00
2017-05-21T15:48:02.832Z,29.10
2017-05-21T15:50:31.194Z,28.30
2017-05-21T15:52:59.508Z,28.20
2017-05-21T15:55:27.863Z,28.50
2017-05-21T15:57:56.178Z,28.40
2017-05-21T16:00:24.520Z,28.70
2017-05-21T16:02:52.858Z,29.50
2017-05-21T16:05:21.229Z,29.40
2017-05-21T16:07:49.547Z,29.10
2017-05-21T16:10:17.891Z,29.50
2017-05-21T16:12:46.244Z,29.80
2017-05-21T16:15:14.615Z,30.40
2017-05-21T16:17:42.946Z,30.40
2017-05-21T16:20:11.303Z,30.50
2017-05-21T16:22:39.645Z,30.50
2017-05-21T16:25:07.988Z,30.00
2017-05-21T16:27:36.336Z,29.80
2017-05-21T16:30:04.680Z,29.10
2017-05-21T16:32:32.988Z,28.60
2017-05-21T16:35:01.368Z,28.80
2017-05-21T16:37:29.711Z,28.80
2017-05-21T16:39:58.111Z,29.40
2017-05-21T16:42:26.433Z,29.30
2017-05-21T16:44:54.784Z,27.90
2017-05-21T16:47:23.121Z,27.20
2017-05-21T16:49:51.468Z,28.00
2017-05-21T16:52:19.794Z,28.10
2017-05-21T16:54:48.139Z,28.10
2017-05-21T16:57:16.460Z,29.60
2017-05-21T16:59:44.812Z,29.30
2017-05-21T17:02:13.142Z,29.10
2017-05-21T17:04:41.484Z,29.30
2017-05-21T17:07:09.849Z,29.60
2017-05-21T17:09:38.193Z,29.50
2017-05-21T17:12:06.541Z,29.30
2017-05-21T17:14:34.907Z,29.50
2017-05-21T17:17:03.226Z,27.90
2017-05-21T17:19:31.573Z,26.80
2017-05-21T17:21:59.887Z,26.20
2017-05-21T17:24:28.234Z,25.80
2017-05-21T17:26:56.550Z,26.40
2017-05-21T17:29:24.888Z,26.90
2017-05-21T17:31:53.205Z,27.30
2017-05-21T17:34:21.578Z,28.00
2017-05-21T17:36:49.887Z,28.90
2017-05-21T17:39:18.247Z,29.30
2017-05-21T17:41:46.570Z,29.50
2017-05-21T17:44:14.890Z,30.20
2017-05-21T17:46:43.241Z,31.20
2017-05-21T17:49:10.793Z,31.10
2017-05-21T17:51:39.159Z,32.50
2017-05-21T17:54:07.473Z,32.80
2017-05-21T17:56:35.829Z,32.80
2017-05-21T17:59:04.158Z,33.40
2017-05-21T18:01:32.505Z,33.50
2017-05-21T18:04:00.818Z,33.50
2017-05-21T18:06:29.168Z,33.80
2017-05-21T18:08:57.485Z,33.80
2017-05-21T18:11:25.841Z,34.20
2017-05-21T18:13:54.152Z,34.80
2017-05-21T18:16:22.513Z,35.10
2017-05-21T18:18:50.835Z,35.40
2017-05-21T18:21:19.184Z,35.70
2017-05-21T18:23:47.509Z,35.60
2017-05-21T18:26:15.918Z,36.20
2017-05-21T18:28:44.245Z,36.80
2017-05-21T18:31:12.589Z,37.00
2017-05-21T18:33:40.937Z,37.40
2017-05-21T18:36:09.293Z,37.70
2017-05-21T18:38:37.632Z,38.30
2017-05-21T18:41:06.055Z,38.80
2017-05-21T18:43:34.377Z,39.10
2017-05-21T18:46:02.739Z,39.80
2017-05-21T18:48:31.094Z,40.70
2017-05-21T18:50:59.449Z,41.20
2017-05-21T18:53:27.773Z,42.30
2017-05-21T18:55:56.160Z,43.00
2017-05-21T18:58:24.488Z,43.20
2017-05-21T19:00:52.828Z,43.00
2017-05-21T19:03:21.514Z,43.10
2017-05-21T19:05:49.892Z,43.70
2017-05-21T19:08:18.289Z,44.50
2017-05-21T19:10:46.641Z,45.70
2017-05-21T19:13:14.981Z,47.30
2017-05-21T19:15:43.335Z,47.60
2017-05-21T19:18:11.736Z,46.80
2017-05-21T19:20:40.098Z,47.10
2017-05-21T19:23:08.462Z,48.70
2017-05-21T19:25:36.824Z,49.40
2017-05-21T19:28:05.148Z,49.80
2017-05-21T19:30:33.496Z,50.00
2017-05-21T19:33:01.810Z,49.80
2017-05-21T19:35:30.174Z,49.70
2017-05-21T19:37:58.781Z,50.30
2017-05-21T19:40:27.150Z,51.50
2017-05-21T19:42:55.475Z,52.50
2017-05-21T19:45:23.841Z,52.40
2017-05-21T19:47:52.228Z,51.70
2017-05-21T19:50:20.650Z,51.70
2017-05-21T19:52:49.000Z,52.00
2017-05-21T19:55:17.311Z,52.20
2017-05-21T19:57:45.657Z,52.50
2017-05-21T20:00:14.092Z,53.00
2017-05-21T20:02:42.449Z,52.90
2017-05-21T20:05:10.763Z,53.50
2017-05-21T20:07:39.114Z,53.80
2017-05-21T20:10:07.420Z,54.00
2017-05-21T20:12:35.761Z,54.30
2017-05-21T20:15:04.096Z,54.70
2017-05-21T20:17:32.437Z,55.30
2017-05-21T20:20:00.752Z,55.60
2017-05-21T20:22:29.103Z,56.20
2017-05-21T20:24:57.423Z,56.70
2017-05-21T20:27:25.783Z,57.30
2017-05-21T20:29:54.100Z,57.80
2017-05-21T20:32:22.503Z,58.20
2017-05-21T20:34:51.005Z,58.60
2017-05-21T20:37:19.489Z,58.90
2017-05-21T20:39:47.841Z,59.00
2017-05-21T20:42:16.193Z,59.40
2017-05-21T20:44:44.520Z,59.70
2017-05-21T20:47:12.875Z,59.90
2017-05-21T20:49:41.197Z,60.50
2017-05-21T20:52:09.551Z,60.90
2017-05-21T20:54:37.871Z,61.30
2017-05-21T20:57:06.226Z,62.30
2017-05-21T20:59:34.551Z,61.70
2017-05-21T21:02:03.004Z,62.10
2017-05-21T21:04:31.328Z,62.70
2017-05-21T21:06:59.699Z,63.20
2017-05-21T21:09:28.057Z,63.50
2017-05-21T21:11:56.415Z,63.60
2017-05-21T21:14:24.733Z,63.80
2017-05-21T21:16:53.075Z,64.00
2017-05-21T21:19:21.409Z,64.20
2017-05-21T21:21:49.761Z,64.50
2017-05-21T21:24:18.111Z,64.70
2017-05-21T21:26:46.474Z,64.80
2017-05-21T21:29:14.794Z,64.60
2017-05-21T21:31:43.182Z,65.00
2017-05-21T21:34:11.521Z,65.00
2017-05-21T21:36:39.872Z,65.00
2017-05-21T21:39:08.192Z,65.20
2017-05-21T21:41:36.553Z,65.60
2017-05-21T21:44:04.863Z,66.10
2017-05-21T21:46:33.280Z,66.40
2017-05-21T21:49:01.647Z,66.90
2017-05-21T21:51:29.962Z,67.10
2017-05-21T21:53:58.313Z,67.10
2017-05-21T21:56:26.640Z,67.30
2017-05-21T21:58:54.989Z,67.40
2017-05-21T22:01:23.303Z,67.60
2017-05-21T22:03:51.653Z,67.60
2017-05-21T22:06:19.992Z,67.90
2017-05-21T22:08:48.355Z,68.30
2017-05-21T22:11:16.675Z,68.20
2017-05-21T22:13:45.026Z,68.20
2017-05-21T22:16:13.344Z,68.40
2017-05-21T22:18:41.693Z,68.70
2017-05-21T22:21:10.017Z,68.70
2017-05-21T22:23:38.365Z,69.00
2017-05-21T22:26:06.679Z,70.40
2017-05-21T22:28:35.021Z,70.60
2017-05-21T22:31:03.336Z,70.70
2017-05-21T22:33:31.714Z,70.70
2017-05-21T22:36:00.028Z,71.10
2017-05-21T22:38:28.381Z,71.10
2017-05-21T22:40:56.708Z,71.10
2017-05-21T22:43:25.062Z,71.10
2017-05-21T22:45:53.370Z,71.10
2017-05-21T22:48:21.721Z,71.20
2017-05-21T22:50:50.028Z,71.20
2017-05-21T22:53:18.373Z,71.30
2017-05-21T22:55:46.689Z,71.40
2017-05-21T22:58:15.033Z,71.60
2017-05-21T23:00:43.363Z,71.40
2017-05-21T23:03:11.717Z,71.30
2017-05-21T23:05:40.039Z,71.30
2017-05-21T23:08:08.386Z,71.50
2017-05-21T23:10:36.699Z,71.50
2017-05-21T23:13:05.043Z,71.60
2017-05-21T23:15:33.357Z,71.70
2017-05-21T23:18:01.709Z,71.60
2017-05-21T23:20:30.032Z,71.50
2017-05-21T23:22:58.384Z,72.10
2017-05-21T23:25:26.712Z,72.40
2017-05-21T23:27:55.055Z,72.60
2017-05-21T23:30:23.371Z,72.70
2017-05-21T23:32:52.025Z,73.00
2017-05-21T23:35:20.347Z,73.20
2017-05-21T23:37:48.699Z,73.40
2017-05-21T23:40:17.012Z,73.40
2017-05-21T23:42:45.371Z,73.20
2017-05-21T23:45:13.684Z,72.90
2017-05-21T23:47:42.001Z,73.20
2017-05-21T23:50:10.347Z,73.50
2017-05-21T23:52:38.665Z,73.10
2017-05-21T23:55:07.032Z,72.80
2017-05-21T23:57:35.349Z,72.70
